createdAt,value
2019-03-30T00:01:23.344Z,88.06
2019-03-30T00:03:53.042Z,88.05
2019-03-30T00:06:22.734Z,88.06
2019-03-30T00:08:52.461Z,88.17
2019-03-30T00:11:22.140Z,88.37
2019-03-30T00:13:51.833Z,88.84
2019-03-30T00:16:21.504Z,89.11
2019-03-30T00:18:51.217Z,89.10
2019-03-30T00:21:20.979Z,89.46
2019-03-30T00:23:50.686Z,89.65
2019-03-30T00:26:20.450Z,90.00
2019-03-30T00:28:50.147Z,90.19
2019-03-30T00:31:19.828Z,90.05
2019-03-30T00:33:49.517Z,89.76
2019-03-30T00:36:19.238Z,89.82
2019-03-30T00:38:49.033Z,89.66
2019-03-30T00:41:18.717Z,89.62
2019-03-30T00:43:48.420Z,89.65
2019-03-30T00:46:18.137Z,89.67
2019-03-30T00:48:47.904Z,88.89
2019-03-30T00:51:17.593Z,89.17
2019-03-30T00:56:53.350Z,89.23
2019-03-30T00:59:29.138Z,89.22
2019-03-30T01:01:58.798Z,89.51
2019-03-30T01:04:28.574Z,89.85
2019-03-30T01:06:58.331Z,90.10
2019-03-30T01:09:28.159Z,90.25
2019-03-30T01:11:57.847Z,89.76
2019-03-30T01:14:27.556Z,89.54
2019-03-30T01:16:57.255Z,89.83
2019-03-30T01:19:26.949Z,90.17
2019-03-30T01:21:56.699Z,90.27
2019-03-30T01:24:26.408Z,90.44
2019-03-30T01:26:56.092Z,89.37
2019-03-30T01:29:25.940Z,89.26
2019-03-30T01:31:55.617Z,89.53
2019-03-30T01:34:25.387Z,89.46
2019-03-30T01:36:55.077Z,89.50
2019-03-30T01:39:24.775Z,89.40
2019-03-30T01:41:54.454Z,89.93
2019-03-30T01:44:24.145Z,89.92
2019-03-30T01:46:53.830Z,89.86
2019-03-30T01:49:23.536Z,89.82
2019-03-30T01:51:53.348Z,89.42
2019-03-30T01:54:26.708Z,89.49
2019-03-30T01:56:56.405Z,89.62
2019-03-30T01:59:26.103Z,89.82
2019-03-30T02:01:55.777Z,89.98
2019-03-30T02:04:25.476Z,90.07
2019-03-30T02:06:55.176Z,90.10
2019-03-30T02:09:24.953Z,90.24
2019-03-30T02:11:54.607Z,90.34
2019-03-30T02:14:24.303Z,90.29
2019-03-30T02:16:53.974Z,90.29
2019-03-30T02:19:23.772Z,90.22
2019-03-30T02:21:53.445Z,90.21
2019-03-30T02:24:23.145Z,90.03
2019-03-30T02:26:52.856Z,90.24
2019-03-30T02:29:22.558Z,90.55
2019-03-30T02:31:52.293Z,90.82
2019-03-30T02:34:22.014Z,91.02
2019-03-30T02:36:51.686Z,91.00
2019-03-30T02:39:21.386Z,91.08
2019-03-30T02:41:51.100Z,91.05
2019-03-30T02:44:20.765Z,90.99
2019-03-30T02:46:50.449Z,90.85
2019-03-30T02:49:20.156Z,90.85
2019-03-30T02:51:49.835Z,90.86
2019-03-30T02:54:19.698Z,91.23
2019-03-30T02:56:49.380Z,91.29
2019-03-30T02:59:19.094Z,91.42
2019-03-30T03:01:48.772Z,91.33
2019-03-30T03:04:18.469Z,91.41
2019-03-30T03:06:48.241Z,91.34
2019-03-30T03:09:17.921Z,91.27
2019-03-30T03:11:47.711Z,91.24
2019-03-30T03:14:17.456Z,91.33
2019-03-30T03:16:47.215Z,91.37
2019-03-30T03:19:16.911Z,91.57
2019-03-30T03:21:46.576Z,91.42
2019-03-30T03:24:16.317Z,91.25
2019-03-30T03:26:46.018Z,91.26
2019-03-30T03:29:15.692Z,90.22
2019-03-30T03:31:45.401Z,90.49
2019-03-30T03:34:15.085Z,90.57
2019-03-30T03:36:44.904Z,90.66
2019-03-30T03:39:14.587Z,90.72
2019-03-30T03:41:44.289Z,90.81
2019-03-30T03:44:13.974Z,90.77
2019-03-30T03:46:43.826Z,91.01
2019-03-30T03:49:13.505Z,90.44
2019-03-30T03:51:43.945Z,90.51
2019-03-30T03:54:16.018Z,90.18
2019-03-30T03:56:47.338Z,90.39
2019-03-30T03:59:17.937Z,90.48
2019-03-30T04:01:49.183Z,90.77
2019-03-30T04:04:22.467Z,90.76
2019-03-30T04:06:53.592Z,90.71
2019-03-30T04:09:25.672Z,90.46
2019-03-30T04:11:57.538Z,90.56
2019-03-30T04:14:27.373Z,90.65
2019-03-30T04:16:57.067Z,90.84
2019-03-30T04:19:26.970Z,91.03
2019-03-30T04:21:56.660Z,91.04
2019-03-30T04:24:26.344Z,91.09
2019-03-30T04:26:56.029Z,91.22
2019-03-30T04:29:25.705Z,91.24
2019-03-30T04:31:55.414Z,91.21
2019-03-30T04:34:25.182Z,90.98
2019-03-30T04:36:54.910Z,90.89
2019-03-30T04:39:24.596Z,91.05
2019-03-30T04:41:54.526Z,91.24
2019-03-30T04:44:24.208Z,91.28
2019-03-30T04:46:53.985Z,91.38
2019-03-30T04:49:23.658Z,91.67
2019-03-30T04:51:57.781Z,91.03
2019-03-30T04:54:24.881Z,91.36
2019-03-30T04:56:54.576Z,91.44
2019-03-30T04:59:24.262Z,91.54
2019-03-30T05:01:53.979Z,91.49
2019-03-30T05:04:23.647Z,90.94
2019-03-30T05:06:53.332Z,90.96
2019-03-30T05:09:23.019Z,91.01
2019-03-30T05:11:52.782Z,91.33
2019-03-30T05:14:22.487Z,91.54
2019-03-30T05:16:52.156Z,91.60
2019-03-30T05:19:21.841Z,91.70
2019-03-30T05:21:51.631Z,91.41
2019-03-30T05:24:21.312Z,91.60
2019-03-30T05:26:51.028Z,91.61
2019-03-30T05:29:20.712Z,91.32
2019-03-30T05:31:50.420Z,90.54
2019-03-30T05:34:20.095Z,90.75
2019-03-30T05:36:49.790Z,90.91
2019-03-30T05:39:19.482Z,90.77
2019-03-30T05:41:49.192Z,90.68
2019-03-30T05:44:18.866Z,90.42
2019-03-30T05:46:48.590Z,90.29
2019-03-30T05:49:18.268Z,89.49
2019-03-30T05:51:47.957Z,89.46
2019-03-30T05:54:17.654Z,89.22
2019-03-30T05:56:47.359Z,89.13
2019-03-30T05:59:17.041Z,89.24
2019-03-30T06:01:46.735Z,89.34
2019-03-30T06:04:16.428Z,89.57
2019-03-30T06:06:46.217Z,89.91
2019-03-30T06:09:15.911Z,88.71
2019-03-30T06:11:45.600Z,86.96
2019-03-30T06:14:15.326Z,84.04
2019-03-30T06:16:45.070Z,81.57
2019-03-30T06:19:14.771Z,78.57
2019-03-30T06:21:44.445Z,77.54
2019-03-30T06:24:14.144Z,76.31
2019-03-30T06:26:43.903Z,76.18
2019-03-30T06:29:13.598Z,74.67
2019-03-30T06:31:46.536Z,73.20
2019-03-30T06:34:14.719Z,73.88
2019-03-30T06:36:44.424Z,72.06
2019-03-30T06:39:14.132Z,71.73
2019-03-30T06:41:43.814Z,71.94
2019-03-30T06:44:13.517Z,72.34
2019-03-30T06:46:43.204Z,70.81
2019-03-30T06:49:12.907Z,70.62
2019-03-30T06:51:42.754Z,71.37
2019-03-30T06:54:14.846Z,70.82
2019-03-30T06:56:44.819Z,71.98
2019-03-30T06:59:14.524Z,74.21
2019-03-30T07:01:44.466Z,75.24
2019-03-30T07:04:14.701Z,77.53
2019-03-30T07:06:45.504Z,78.74
2019-03-30T07:09:18.114Z,79.86
2019-03-30T07:11:49.996Z,80.57
2019-03-30T07:14:21.282Z,81.27
2019-03-30T07:16:54.006Z,81.23
2019-03-30T07:19:26.754Z,81.91
2019-03-30T07:21:56.424Z,81.75
2019-03-30T07:24:26.137Z,81.12
2019-03-30T07:26:55.818Z,80.71
2019-03-30T07:29:25.506Z,80.65
2019-03-30T07:31:55.182Z,80.25
2019-03-30T07:34:24.898Z,79.67
2019-03-30T07:36:54.655Z,79.43
2019-03-30T07:39:24.389Z,79.01
2019-03-30T07:41:54.126Z,78.63
2019-03-30T07:44:23.927Z,78.62
2019-03-30T07:46:53.688Z,77.90
2019-03-30T07:49:23.417Z,77.70
2019-03-30T07:51:53.101Z,78.06
2019-03-30T07:54:22.939Z,77.74
2019-03-30T07:57:04.261Z,78.58
2019-03-30T07:59:24.061Z,77.92
2019-03-30T08:01:53.723Z,76.71
2019-03-30T08:04:23.424Z,76.55
2019-03-30T08:06:53.237Z,76.41
2019-03-30T08:09:22.941Z,75.83
2019-03-30T08:11:52.728Z,75.71
2019-03-30T08:14:22.430Z,75.38
2019-03-30T08:16:52.111Z,74.94
2019-03-30T08:19:22.040Z,73.43
2019-03-30T08:21:51.720Z,74.58
2019-03-30T08:24:21.393Z,73.74
2019-03-30T08:26:51.075Z,72.77
2019-03-30T08:29:20.778Z,72.86
2019-03-30T08:31:50.459Z,72.53
2019-03-30T08:34:20.143Z,72.28
2019-03-30T08:36:49.872Z,71.78
2019-03-30T08:39:19.543Z,71.10
2019-03-30T08:41:49.271Z,71.03
2019-03-30T08:44:19.739Z,70.47
2019-03-30T08:46:50.945Z,70.89
2019-03-30T08:49:20.632Z,71.55
2019-03-30T08:51:50.354Z,70.56
2019-03-30T08:54:20.049Z,68.50
2019-03-30T08:56:49.751Z,68.57
2019-03-30T08:59:19.453Z,68.00
2019-03-30T09:01:49.311Z,69.29
2019-03-30T09:04:18.987Z,69.37
2019-03-30T09:06:48.697Z,68.46
2019-03-30T09:09:18.483Z,68.97
2019-03-30T09:11:48.208Z,68.45
2019-03-30T09:14:17.903Z,67.96
2019-03-30T09:16:47.707Z,68.63
2019-03-30T09:19:17.391Z,68.09
2019-03-30T09:21:47.120Z,68.26
2019-03-30T09:24:16.822Z,67.78
2019-03-30T09:26:46.524Z,68.02
2019-03-30T09:29:16.241Z,67.46
2019-03-30T09:31:45.901Z,67.79
2019-03-30T09:34:15.634Z,67.44
2019-03-30T09:36:45.483Z,66.81
2019-03-30T09:39:15.311Z,66.63
2019-03-30T09:41:45.115Z,66.68
2019-03-30T09:44:14.828Z,66.22
2019-03-30T09:46:44.690Z,65.64
2019-03-30T09:49:15.762Z,66.32
2019-03-30T09:51:45.540Z,64.37
2019-03-30T09:54:23.653Z,64.49
2019-03-30T09:56:47.819Z,63.59
2019-03-30T09:59:17.571Z,64.18
2019-03-30T10:01:47.397Z,63.85
2019-03-30T10:04:17.146Z,63.79
2019-03-30T10:06:46.959Z,63.97
2019-03-30T10:09:16.703Z,63.78
2019-03-30T10:11:46.425Z,62.46
2019-03-30T10:14:16.185Z,63.24
2019-03-30T10:16:48.729Z,62.47
2019-03-30T10:19:17.587Z,63.05
2019-03-30T10:21:47.326Z,62.29
2019-03-30T10:24:17.093Z,61.45
2019-03-30T10:26:46.952Z,61.39
2019-03-30T10:29:16.702Z,61.17
2019-03-30T10:31:46.453Z,62.32
2019-03-30T10:34:16.226Z,60.22
2019-03-30T10:36:45.976Z,59.58
2019-03-30T10:39:15.721Z,61.02
2019-03-30T10:41:45.487Z,61.83
2019-03-30T10:44:15.263Z,62.55
2019-03-30T10:46:45.086Z,62.54
2019-03-30T10:49:14.954Z,62.60
2019-03-30T11:03:30.863Z,57.83
2019-03-30T11:06:00.689Z,57.96
2019-03-30T11:08:30.454Z,58.96
2019-03-30T11:11:00.232Z,57.15
2019-03-30T11:13:29.922Z,56.61
2019-03-30T11:15:59.626Z,57.84
2019-03-30T11:18:29.317Z,58.06
2019-03-30T11:20:59.114Z,58.44
2019-03-30T11:23:28.822Z,56.80
2019-03-30T11:25:58.537Z,57.43
2019-03-30T11:28:28.242Z,56.72
2019-03-30T11:30:57.928Z,57.59
2019-03-30T11:33:27.633Z,57.48
2019-03-30T11:35:57.315Z,57.98
2019-03-30T11:38:27.006Z,58.50
2019-03-30T11:40:56.689Z,58.01
2019-03-30T11:43:26.384Z,56.87
2019-03-30T11:45:56.083Z,58.93
2019-03-30T11:48:25.779Z,57.78
2019-03-30T11:50:55.537Z,59.01
2019-03-30T11:53:25.247Z,57.01
2019-03-30T11:55:55.067Z,57.35
2019-03-30T11:58:24.851Z,56.33
2019-03-30T12:00:54.643Z,56.22
2019-03-30T12:03:24.374Z,57.42
2019-03-30T12:05:54.133Z,56.05
2019-03-30T12:08:29.728Z,56.77
2019-03-30T12:11:01.072Z,55.46
2019-03-30T12:13:30.805Z,56.82
2019-03-30T12:16:00.484Z,55.56
2019-03-30T12:18:30.253Z,55.74
2019-03-30T12:20:59.907Z,54.32
2019-03-30T12:23:29.702Z,54.94
2019-03-30T12:25:59.378Z,53.67
2019-03-30T12:28:29.165Z,55.21
2019-03-30T12:30:58.852Z,54.94
2019-03-30T12:33:28.624Z,55.89
2019-03-30T12:35:58.299Z,56.36
2019-03-30T12:38:28.007Z,56.39
2019-03-30T12:40:57.777Z,56.54
2019-03-30T12:43:27.477Z,55.21
2019-03-30T12:45:57.147Z,56.38
2019-03-30T12:48:26.969Z,56.14
2019-03-30T12:50:56.742Z,56.57
2019-03-30T12:53:26.450Z,54.66
2019-03-30T12:55:56.140Z,54.50
2019-03-30T12:58:25.833Z,54.04
2019-03-30T13:00:55.534Z,54.02
2019-03-30T13:03:25.264Z,55.29
2019-03-30T13:05:54.962Z,55.10
2019-03-30T13:08:24.665Z,54.33
2019-03-30T13:10:54.355Z,55.16
2019-03-30T13:13:24.045Z,52.34
2019-03-30T13:15:53.863Z,53.20
2019-03-30T13:18:23.563Z,52.48
2019-03-30T13:20:53.388Z,53.18
2019-03-30T13:23:23.104Z,52.91
2019-03-30T13:26:03.439Z,52.53
2019-03-30T13:28:24.207Z,52.75
2019-03-30T13:30:53.909Z,53.10
2019-03-30T13:33:23.611Z,53.42
2019-03-30T13:35:53.315Z,53.72
2019-03-30T13:38:25.745Z,52.78
2019-03-30T13:40:54.418Z,53.62
2019-03-30T13:43:24.130Z,54.58
2019-03-30T13:45:53.842Z,54.37
2019-03-30T13:48:23.546Z,53.16
2019-03-30T13:50:53.320Z,53.55
2019-03-30T13:53:22.991Z,53.54
2019-03-30T13:55:52.674Z,53.96
2019-03-30T13:58:22.376Z,53.29
2019-03-30T14:00:52.119Z,53.36
2019-03-30T14:03:21.832Z,52.78
2019-03-30T14:05:51.921Z,52.93
2019-03-30T14:08:21.695Z,53.17
2019-03-30T14:10:51.475Z,54.94
2019-03-30T14:13:21.166Z,55.44
2019-03-30T14:15:50.852Z,54.33
2019-03-30T14:18:20.572Z,54.40
2019-03-30T14:20:50.333Z,53.69
2019-03-30T14:23:20.140Z,52.82
2019-03-30T14:25:49.903Z,53.30
2019-03-30T14:28:19.628Z,53.87
2019-03-30T14:30:49.403Z,54.44
2019-03-30T14:33:19.218Z,54.99
2019-03-30T14:35:48.946Z,55.08
2019-03-30T14:38:18.635Z,55.41
2019-03-30T14:40:48.422Z,55.54
2019-03-30T14:43:18.174Z,56.19
2019-03-30T14:45:47.957Z,55.98
2019-03-30T14:48:17.660Z,54.99
2019-03-30T14:50:47.359Z,53.90
2019-03-30T14:53:24.768Z,54.56
2019-03-30T14:55:54.601Z,54.65
2019-03-30T14:58:24.296Z,54.21
2019-03-30T15:00:54.008Z,55.35
2019-03-30T15:03:23.801Z,54.76
2019-03-30T15:05:53.450Z,55.38
2019-03-30T15:08:23.137Z,56.24
2019-03-30T15:10:52.857Z,55.83
2019-03-30T15:13:22.553Z,56.63
2019-03-30T15:15:52.267Z,56.08
2019-03-30T15:18:21.973Z,56.38
2019-03-30T15:20:51.708Z,56.92
2019-03-30T15:23:21.376Z,56.65
2019-03-30T15:25:51.077Z,55.14
2019-03-30T15:28:20.780Z,56.18
2019-03-30T15:30:54.088Z,55.49
2019-03-30T15:33:23.759Z,55.52
2019-03-30T15:35:53.528Z,55.80
2019-03-30T15:38:23.216Z,56.13
2019-03-30T15:40:55.611Z,57.00
2019-03-30T15:43:37.627Z,57.70
2019-03-30T15:45:55.839Z,59.10
2019-03-30T15:48:28.205Z,61.22
2019-03-30T15:50:56.920Z,61.89
2019-03-30T15:53:26.604Z,62.31
2019-03-30T15:55:56.336Z,62.08
2019-03-30T15:58:26.008Z,62.42
2019-03-30T16:00:55.720Z,61.90
2019-03-30T16:03:25.542Z,62.65
2019-03-30T16:05:55.267Z,62.65
2019-03-30T16:08:25.068Z,62.57
2019-03-30T16:10:54.812Z,63.16
2019-03-30T16:13:24.505Z,63.46
2019-03-30T16:15:54.212Z,63.09
2019-03-30T16:18:23.907Z,63.78
2019-03-30T16:20:53.611Z,63.92
2019-03-30T16:23:23.299Z,63.71
2019-03-30T16:25:53.074Z,62.92
2019-03-30T16:28:22.859Z,63.91
2019-03-30T16:30:52.690Z,63.44
2019-03-30T16:33:22.449Z,63.81
2019-03-30T16:35:52.143Z,63.77
2019-03-30T16:38:21.837Z,63.51
2019-03-30T16:40:51.606Z,64.62
2019-03-30T16:43:21.271Z,64.85
2019-03-30T16:45:50.984Z,64.94
2019-03-30T16:48:20.668Z,64.73
2019-03-30T16:50:50.379Z,65.19
2019-03-30T16:53:20.139Z,66.42
2019-03-30T16:55:49.835Z,66.36
2019-03-30T16:58:19.531Z,66.19
2019-03-30T17:00:56.164Z,66.39
2019-03-30T17:03:20.682Z,66.23
2019-03-30T17:05:50.559Z,65.43
2019-03-30T17:08:20.298Z,64.14
2019-03-30T17:10:50.244Z,63.58
2019-03-30T17:13:19.932Z,64.07
2019-03-30T17:15:49.654Z,64.13
2019-03-30T17:18:19.417Z,64.28
2019-03-30T17:20:49.127Z,64.42
2019-03-30T17:23:18.900Z,64.40
2019-03-30T17:25:48.608Z,64.80
2019-03-30T17:28:18.451Z,65.43
2019-03-30T17:30:48.190Z,64.67
2019-03-30T17:33:17.969Z,65.44
2019-03-30T17:35:47.687Z,65.75
2019-03-30T17:38:17.482Z,65.14
2019-03-30T17:40:47.268Z,65.57
2019-03-30T17:43:17.055Z,66.30
2019-03-30T17:45:46.769Z,66.11
2019-03-30T17:48:16.515Z,65.55
2019-03-30T17:50:46.238Z,65.27
2019-03-30T17:53:16.023Z,65.45
2019-03-30T17:55:45.774Z,65.86
2019-03-30T17:58:15.670Z,66.50
2019-03-30T18:00:45.621Z,66.86
2019-03-30T18:03:15.419Z,67.35
2019-03-30T18:05:45.360Z,67.85
2019-03-30T18:08:15.203Z,68.31
2019-03-30T18:10:45.203Z,68.47
2019-03-30T18:13:15.087Z,69.39
2019-03-30T18:15:44.847Z,70.09
2019-03-30T18:18:14.617Z,70.69
2019-03-30T18:20:44.374Z,71.29
2019-03-30T18:23:14.167Z,71.72
2019-03-30T18:25:43.956Z,72.64
2019-03-30T18:28:26.494Z,73.14
2019-03-30T18:30:45.176Z,73.54
2019-03-30T18:33:15.162Z,73.80
2019-03-30T18:35:45.628Z,74.15
2019-03-30T18:38:16.182Z,74.30
2019-03-30T18:40:46.021Z,74.68
2019-03-30T18:43:17.386Z,74.95
2019-03-30T18:45:47.124Z,75.33
2019-03-30T18:48:18.274Z,75.71
2019-03-30T18:50:48.561Z,76.04
2019-03-30T18:53:18.609Z,76.49
2019-03-30T18:55:48.390Z,76.86
2019-03-30T18:58:18.304Z,77.25
2019-03-30T19:00:48.171Z,77.59
2019-03-30T19:03:20.147Z,77.84
2019-03-30T19:05:50.141Z,77.93
2019-03-30T19:08:20.011Z,78.53
2019-03-30T19:10:49.854Z,78.96
2019-03-30T19:13:19.734Z,79.33
2019-03-30T19:15:49.479Z,79.48
2019-03-30T19:18:19.294Z,79.78
2019-03-30T19:20:50.253Z,79.95
2019-03-30T19:23:20.184Z,80.21
2019-03-30T19:25:50.028Z,80.32
2019-03-30T19:28:19.939Z,81.00
2019-03-30T19:30:51.748Z,80.88
2019-03-30T19:33:21.505Z,81.36
2019-03-30T19:35:51.423Z,81.40
2019-03-30T19:38:21.190Z,81.76
2019-03-30T19:40:53.396Z,81.73
2019-03-30T19:43:25.797Z,82.10
2019-03-30T19:45:55.567Z,82.56
2019-03-30T19:48:29.955Z,82.76
2019-03-30T19:50:59.780Z,83.02
2019-03-30T19:53:29.601Z,83.11
2019-03-30T19:55:59.389Z,83.43
2019-03-30T19:58:29.384Z,83.35
2019-03-30T20:01:07.362Z,83.55
2019-03-30T20:03:37.223Z,83.71
2019-03-30T20:06:07.172Z,83.85
2019-03-30T20:08:36.967Z,84.32
2019-03-30T20:11:06.929Z,84.41
2019-03-30T20:13:36.920Z,84.50
2019-03-30T20:16:06.976Z,84.43
2019-03-30T20:18:38.886Z,84.89
2019-03-30T20:21:11.879Z,84.99
2019-03-30T20:23:42.395Z,85.32
2019-03-30T20:26:12.491Z,85.58
2019-03-30T20:28:42.352Z,85.35
2019-03-30T20:31:14.194Z,85.46
2019-03-30T20:33:44.059Z,85.64
2019-03-30T20:36:14.095Z,85.88
2019-03-30T20:38:43.887Z,85.74
2019-03-30T20:41:13.718Z,85.80
2019-03-30T20:43:43.519Z,85.91
2019-03-30T20:46:13.317Z,86.47
2019-03-30T20:48:43.063Z,86.71
2019-03-30T20:51:12.956Z,86.83
2019-03-30T20:53:42.743Z,87.29
2019-03-30T20:56:25.022Z,87.48
2019-03-30T20:58:55.040Z,87.29
2019-03-30T21:01:25.016Z,87.89
2019-03-30T21:03:54.956Z,87.92
2019-03-30T21:06:24.809Z,88.12
2019-03-30T21:08:54.635Z,88.27
2019-03-30T21:11:24.607Z,88.22
2019-03-30T21:13:56.778Z,88.50
2019-03-30T21:16:25.933Z,88.51
2019-03-30T21:18:55.701Z,88.41
2019-03-30T21:21:25.527Z,88.82
2019-03-30T21:23:55.339Z,88.60
2019-03-30T21:26:28.463Z,88.27
2019-03-30T21:28:56.594Z,88.88
2019-03-30T21:31:26.317Z,89.05
2019-03-30T21:33:56.072Z,88.60
2019-03-30T21:36:25.888Z,88.83
2019-03-30T21:38:56.613Z,87.82
2019-03-30T21:41:26.443Z,87.98
2019-03-30T21:43:56.325Z,88.37
2019-03-30T21:46:26.055Z,88.55
2019-03-30T21:48:55.889Z,88.32
2019-03-30T21:51:25.642Z,88.26
2019-03-30T21:53:55.483Z,88.39
2019-03-30T21:56:25.236Z,88.51
2019-03-30T21:58:55.009Z,88.64
2019-03-30T22:01:24.762Z,88.57
2019-03-30T22:03:54.693Z,88.23
2019-03-30T22:06:24.707Z,88.69
2019-03-30T22:08:55.746Z,88.29
2019-03-30T22:11:25.493Z,87.73
2019-03-30T22:13:55.315Z,87.55
2019-03-30T22:16:25.175Z,87.08
2019-03-30T22:18:55.014Z,87.55
2019-03-30T22:21:24.752Z,87.48
2019-03-30T22:23:54.519Z,87.67
2019-03-30T22:26:24.959Z,87.49
2019-03-30T22:28:54.919Z,87.10
2019-03-30T22:31:24.654Z,86.83
2019-03-30T22:33:54.468Z,86.99
2019-03-30T22:36:24.397Z,86.78
2019-03-30T22:38:54.257Z,86.63
2019-03-30T22:41:24.081Z,86.65
2019-03-30T22:43:53.952Z,86.28
2019-03-30T22:46:23.842Z,86.25
2019-03-30T22:48:53.594Z,85.98
2019-03-30T22:51:23.511Z,85.28
2019-03-30T22:53:53.324Z,85.19
2019-03-30T22:56:23.105Z,84.56
2019-03-30T22:58:52.862Z,85.08
2019-03-30T23:01:23.575Z,84.96
2019-03-30T23:03:53.379Z,84.94
2019-03-30T23:06:23.176Z,85.08
2019-03-30T23:08:52.956Z,85.30
2019-03-30T23:11:22.700Z,85.18
2019-03-30T23:13:52.532Z,84.87
2019-03-30T23:16:22.435Z,84.68
2019-03-30T23:18:52.482Z,85.24
2019-03-30T23:21:22.304Z,84.99
2019-03-30T23:23:52.207Z,85.19
2019-03-30T23:26:22.124Z,84.63
2019-03-30T23:28:51.927Z,85.13
2019-03-30T23:31:22.774Z,85.17
2019-03-30T23:33:52.560Z,85.07
2019-03-30T23:36:22.426Z,84.68
2019-03-30T23:38:52.182Z,84.92
2019-03-30T23:41:21.942Z,85.34
2019-03-30T23:43:51.831Z,85.02
2019-03-30T23:46:21.591Z,85.17
2019-03-30T23:48:51.486Z,85.42
2019-03-30T23:51:21.295Z,85.10
2019-03-30T23:53:51.575Z,84.95
2019-03-30T23:56:22.972Z,84.72
2019-03-30T23:58:53.261Z,84.59
